sensor_id;sensor_type;location;lat;lon;timestamp;pressure;altitude;pressure_sealevel;temperature;humidity
63819;BME280;49970;54.976;73.248;2023-03-16T00:00:48;100623.88;;;-3.89;99.05
63819;BME280;49970;54.976;73.248;2023-03-16T00:03:16;100621.28;;;-3.89;98.87
63819;BME280;49970;54.976;73.248;2023-03-16T00:05:46;100626.47;;;-3.87;99.16
63819;BME280;49970;54.976;73.248;2023-03-16T00:08:13;100626.44;;;-3.86;98.95
63819;BME280;49970;54.976;73.248;2023-03-16T00:10:40;100625.59;;;-3.86;98.81
63819;BME280;49970;54.976;73.248;2023-03-16T00:13:22;100639.38;;;-3.84;99.20
63819;BME280;49970;54.976;73.248;2023-03-16T00:15:53;100644.56;;;-3.87;97.98
63819;BME280;49970;54.976;73.248;2023-03-16T00:18:30;100648.03;;;-3.88;98.54
63819;BME280;49970;54.976;73.248;2023-03-16T00:21:04;100651.47;;;-3.88;98.25
63819;BME280;49970;54.976;73.248;2023-03-16T00:23:32;100659.19;;;-3.85;97.96
63819;BME280;49970;54.976;73.248;2023-03-16T00:26:07;100671.28;;;-3.85;98.10
63819;BME280;49970;54.976;73.248;2023-03-16T00:28:37;100661.00;;;-3.91;97.94
63819;BME280;49970;54.976;73.248;2023-03-16T00:31:10;100667.84;;;-3.84;97.76
63819;BME280;49970;54.976;73.248;2023-03-16T00:33:50;100679.06;;;-3.85;97.82
63819;BME280;49970;54.976;73.248;2023-03-16T00:36:16;100681.63;;;-3.85;98.05
63819;BME280;49970;54.976;73.248;2023-03-16T00:38:53;100679.94;;;-3.86;98.05
63819;BME280;49970;54.976;73.248;2023-03-16T00:41:20;100694.63;;;-3.88;97.46
63819;BME280;49970;54.976;73.248;2023-03-16T00:43:47;100697.16;;;-3.85;97.87
63819;BME280;49970;54.976;73.248;2023-03-16T00:46:15;100706.66;;;-3.84;97.22
63819;BME280;49970;54.976;73.248;2023-03-16T00:48:44;100674.88;;;-4.05;96.88
63819;BME280;49970;54.976;73.248;2023-03-16T00:51:13;100704.09;;;-3.89;97.03
63819;BME280;49970;54.976;73.248;2023-03-16T00:53:46;100724.78;;;-3.84;96.75
63819;BME280;49970;54.976;73.248;2023-03-16T00:56:12;100735.13;;;-3.86;96.57
63819;BME280;49970;54.976;73.248;2023-03-16T00:58:40;100730.84;;;-3.88;96.60
63819;BME280;49970;54.976;73.248;2023-03-16T01:01:12;100736.84;;;-3.85;96.75
63819;BME280;49970;54.976;73.248;2023-03-16T01:03:39;100736.03;;;-3.88;96.07
63819;BME280;49970;54.976;73.248;2023-03-16T01:06:09;100744.66;;;-3.94;96.32
63819;BME280;49970;54.976;73.248;2023-03-16T01:08:41;100759.28;;;-3.87;96.54
63819;BME280;49970;54.976;73.248;2023-03-16T01:11:11;100754.13;;;-3.87;95.49
63819;BME280;49970;54.976;73.248;2023-03-16T01:13:38;100760.16;;;-3.88;95.93
63819;BME280;49970;54.976;73.248;2023-03-16T01:16:05;100753.31;;;-3.96;95.44
63819;BME280;49970;54.976;73.248;2023-03-16T01:18:32;100773.13;;;-3.91;94.98
63819;BME280;49970;54.976;73.248;2023-03-16T01:21:04;100767.97;;;-3.98;94.73
63819;BME280;49970;54.976;73.248;2023-03-16T01:23:33;100786.91;;;-3.90;95.22
63819;BME280;49970;54.976;73.248;2023-03-16T01:26:10;100798.13;;;-3.90;95.00
63819;BME280;49970;54.976;73.248;2023-03-16T01:28:37;100797.25;;;-3.90;94.54
63819;BME280;49970;54.976;73.248;2023-03-16T01:31:09;100804.16;;;-3.91;94.53
63819;BME280;49970;54.976;73.248;2023-03-16T01:33:37;100810.19;;;-3.90;95.08
63819;BME280;49970;54.976;73.248;2023-03-16T01:36:14;100817.97;;;-3.93;94.30
63819;BME280;49970;54.976;73.248;2023-03-16T01:39:01;100826.59;;;-3.94;94.59
63819;BME280;49970;54.976;73.248;2023-03-16T01:41:36;100824.88;;;-3.91;94.40
63819;BME280;49970;54.976;73.248;2023-03-16T01:44:04;100829.19;;;-3.91;94.13
63819;BME280;49970;54.976;73.248;2023-03-16T01:46:30;100833.50;;;-3.93;94.20
63819;BME280;49970;54.976;73.248;2023-03-16T01:49:14;100834.38;;;-3.93;93.68
63819;BME280;49970;54.976;73.248;2023-03-16T01:51:53;100836.97;;;-3.99;93.89
63819;BME280;49970;54.976;73.248;2023-03-16T01:57:39;100853.34;;;-3.94;93.32
63819;BME280;49970;54.976;73.248;2023-03-16T02:00:13;100844.72;;;-3.94;93.04
63819;BME280;49970;54.976;73.248;2023-03-16T02:03:10;100861.97;;;-3.95;93.54
63819;BME280;49970;54.976;73.248;2023-03-16T02:06:04;100855.97;;;-4.00;92.56
63819;BME280;49970;54.976;73.248;2023-03-16T02:08:36;100858.53;;;-4.03;92.76
63819;BME280;49970;54.976;73.248;2023-03-16T02:11:05;100852.50;;;-4.02;92.94
63819;BME280;49970;54.976;73.248;2023-03-16T02:13:50;100869.75;;;-4.06;92.16
63819;BME280;49970;54.976;73.248;2023-03-16T02:16:18;100868.91;;;-4.05;92.68
63819;BME280;49970;54.976;73.248;2023-03-16T02:18:57;100873.22;;;-4.04;92.77
63819;BME280;49970;54.976;73.248;2023-03-16T02:21:41;100878.41;;;-4.05;92.01
63819;BME280;49970;54.976;73.248;2023-03-16T02:24:10;100872.34;;;-4.07;92.62
63819;BME280;49970;54.976;73.248;2023-03-16T02:26:44;100874.09;;;-4.05;92.43
63819;BME280;49970;54.976;73.248;2023-03-16T02:29:40;100874.94;;;-4.03;92.30
63819;BME280;49970;54.976;73.248;2023-03-16T02:32:08;100876.63;;;-4.02;92.39
63819;BME280;49970;54.976;73.248;2023-03-16T02:34:37;100886.13;;;-3.97;91.97
63819;BME280;49970;54.976;73.248;2023-03-16T02:37:05;100886.13;;;-4.02;92.09
63819;BME280;49970;54.976;73.248;2023-03-16T02:39:32;100895.63;;;-4.04;91.56
63819;BME280;49970;54.976;73.248;2023-03-16T02:42:00;100892.19;;;-4.00;91.88
63819;BME280;49970;54.976;73.248;2023-03-16T02:44:31;100903.38;;;-4.03;91.79
63819;BME280;49970;54.976;73.248;2023-03-16T02:47:02;100905.97;;;-4.06;91.28
63819;BME280;49970;54.976;73.248;2023-03-16T02:49:39;100900.81;;;-4.15;91.45
63819;BME280;49970;54.976;73.248;2023-03-16T02:52:07;100913.75;;;-4.09;91.13
63819;BME280;49970;54.976;73.248;2023-03-16T02:54:33;100902.56;;;-4.14;91.34
63819;BME280;49970;54.976;73.248;2023-03-16T02:57:03;100922.34;;;-4.10;91.50
63819;BME280;49970;54.976;73.248;2023-03-16T02:59:31;100921.50;;;-4.07;91.63
63819;BME280;49970;54.976;73.248;2023-03-16T03:02:08;100924.94;;;-4.02;91.75
63819;BME280;49970;54.976;73.248;2023-03-16T03:04:35;100935.28;;;-3.99;91.42
63819;BME280;49970;54.976;73.248;2023-03-16T03:07:07;100937.00;;;-3.95;91.29
63819;BME280;49970;54.976;73.248;2023-03-16T03:10:20;100949.09;;;-3.92;91.62
63819;BME280;49970;54.976;73.248;2023-03-16T03:14:11;100943.88;;;-3.89;91.54
63819;BME280;49970;54.976;73.248;2023-03-16T03:17:43;100950.81;;;-3.88;91.42
63819;BME280;49970;54.976;73.248;2023-03-16T03:20:11;100952.50;;;-3.86;91.46
63819;BME280;49970;54.976;73.248;2023-03-16T03:22:44;100955.13;;;-3.84;91.05
63819;BME280;49970;54.976;73.248;2023-03-16T03:25:12;100963.75;;;-3.84;90.50
63819;BME280;49970;54.976;73.248;2023-03-16T03:27:40;100962.88;;;-3.87;90.72
63819;BME280;49970;54.976;73.248;2023-03-16T03:30:12;100969.75;;;-3.89;90.08
63819;BME280;49970;54.976;73.248;2023-03-16T03:32:44;100965.47;;;-3.90;90.21
63819;BME280;49970;54.976;73.248;2023-03-16T03:35:16;100977.56;;;-3.95;90.10
63819;BME280;49970;54.976;73.248;2023-03-16T03:37:42;100971.50;;;-3.99;89.55
63819;BME280;49970;54.976;73.248;2023-03-16T03:40:12;100968.06;;;-4.03;89.78
63819;BME280;49970;54.976;73.248;2023-03-16T03:42:41;100973.25;;;-4.01;89.39
63819;BME280;49970;54.976;73.248;2023-03-16T03:45:09;100982.72;;;-4.00;89.98
63819;BME280;49970;54.976;73.248;2023-03-16T03:47:39;100981.00;;;-4.04;89.91
63819;BME280;49970;54.976;73.248;2023-03-16T03:50:08;100978.44;;;-4.09;89.75
63819;BME280;49970;54.976;73.248;2023-03-16T03:52:49;100987.91;;;-4.11;89.31
63819;BME280;49970;54.976;73.248;2023-03-16T03:55:21;100989.63;;;-4.11;89.47
63819;BME280;49970;54.976;73.248;2023-03-16T03:57:47;100985.31;;;-4.12;89.96
63819;BME280;49970;54.976;73.248;2023-03-16T04:00:18;101002.56;;;-4.08;89.78
63819;BME280;49970;54.976;73.248;2023-03-16T04:02:49;100999.09;;;-4.06;90.39
63819;BME280;49970;54.976;73.248;2023-03-16T04:05:29;101004.31;;;-4.04;90.49
63819;BME280;49970;54.976;73.248;2023-03-16T04:08:06;101006.88;;;-3.99;90.57
63819;BME280;49970;54.976;73.248;2023-03-16T04:10:33;101001.69;;;-3.95;90.39
63819;BME280;49970;54.976;73.248;2023-03-16T04:13:00;101012.91;;;-3.96;89.71
63819;BME280;49970;54.976;73.248;2023-03-16T04:15:31;101007.75;;;-3.96;90.16
63819;BME280;49970;54.976;73.248;2023-03-16T04:18:12;101010.34;;;-3.88;90.01
63819;BME280;49970;54.976;73.248;2023-03-16T04:20:39;101018.97;;;-3.88;90.22
63819;BME280;49970;54.976;73.248;2023-03-16T04:23:06;101026.69;;;-3.89;89.98
63819;BME280;49970;54.976;73.248;2023-03-16T04:25:45;101021.56;;;-3.92;89.89
63819;BME280;49970;54.976;73.248;2023-03-16T04:28:13;101021.56;;;-3.92;89.73
63819;BME280;49970;54.976;73.248;2023-03-16T04:30:43;101020.66;;;-3.87;90.37
63819;BME280;49970;54.976;73.248;2023-03-16T04:33:36;101026.72;;;-3.83;89.85
63819;BME280;49970;54.976;73.248;2023-03-16T04:36:04;101021.53;;;-3.80;89.41
63819;BME280;49970;54.976;73.248;2023-03-16T04:38:32;101027.56;;;-3.77;89.86
63819;BME280;49970;54.976;73.248;2023-03-16T04:41:03;101032.75;;;-3.70;90.02
63819;BME280;49970;54.976;73.248;2023-03-16T04:43:34;101037.06;;;-3.66;89.62
63819;BME280;49970;54.976;73.248;2023-03-16T04:46:09;101014.63;;;-3.67;90.30
63819;BME280;49970;54.976;73.248;2023-03-16T04:48:37;101036.16;;;-3.58;89.23
63819;BME280;49970;54.976;73.248;2023-03-16T04:51:05;101024.94;;;-3.61;89.20
63819;BME280;49970;54.976;73.248;2023-03-16T04:53:43;101037.91;;;-3.58;89.30
63819;BME280;49970;54.976;73.248;2023-03-16T04:56:27;101043.94;;;-3.62;88.93
63819;BME280;49970;54.976;73.248;2023-03-16T04:59:03;101050.84;;;-3.63;89.02
63819;BME280;49970;54.976;73.248;2023-03-16T05:01:39;101051.69;;;-3.64;89.20
63819;BME280;49970;54.976;73.248;2023-03-16T05:04:06;101052.59;;;-3.63;89.13
63819;BME280;49970;54.976;73.248;2023-03-16T05:06:35;101046.53;;;-3.64;88.42
63819;BME280;49970;54.976;73.248;2023-03-16T05:09:21;101059.50;;;-3.59;89.24
63819;BME280;49970;54.976;73.248;2023-03-16T05:11:57;101059.47;;;-3.50;89.16
63819;BME280;49970;54.976;73.248;2023-03-16T05:14:24;101056.84;;;-3.39;89.26
63819;BME280;49970;54.976;73.248;2023-03-16T05:17:16;101074.13;;;-3.34;89.11
63819;BME280;49970;54.976;73.248;2023-03-16T05:19:44;101071.50;;;-3.32;88.79
63819;BME280;49970;54.976;73.248;2023-03-16T05:22:11;101067.19;;;-3.35;88.34
63819;BME280;49970;54.976;73.248;2023-03-16T05:24:46;101075.00;;;-3.38;88.41
63819;BME280;49970;54.976;73.248;2023-03-16T05:27:12;101078.44;;;-3.42;87.96
63819;BME280;49970;54.976;73.248;2023-03-16T05:29:58;101076.69;;;-3.43;87.76
63819;BME280;49970;54.976;73.248;2023-03-16T05:33:54;101081.03;;;-3.40;88.01
63819;BME280;49970;54.976;73.248;2023-03-16T05:37:25;101085.34;;;-3.41;87.70
63819;BME280;49970;54.976;73.248;2023-03-16T05:40:12;101083.59;;;-3.36;87.51
63819;BME280;49970;54.976;73.248;2023-03-16T05:44:47;101094.84;;;-3.29;87.63
63819;BME280;49970;54.976;73.248;2023-03-16T05:48:50;101098.28;;;-3.30;87.08
63819;BME280;49970;54.976;73.248;2023-03-16T05:56:36;101100.88;;;-3.47;86.43
63819;BME280;49970;54.976;73.248;2023-03-16T06:00:51;101104.34;;;-3.49;86.34
63819;BME280;49970;54.976;73.248;2023-03-16T06:04:43;101104.34;;;-3.40;86.55
63819;BME280;49970;54.976;73.248;2023-03-16T06:12:24;101097.41;;;-3.28;86.71
63819;BME280;49970;54.976;73.248;2023-03-16T06:16:15;101103.41;;;-3.15;87.00
63819;BME280;49970;54.976;73.248;2023-03-16T06:20:08;101108.56;;;-3.03;86.92
63819;BME280;49970;54.976;73.248;2023-03-16T06:28:42;101106.88;;;-3.08;86.37
63819;BME280;49970;54.976;73.248;2023-03-16T06:36:22;101105.97;;;-2.98;86.48
63819;BME280;49970;54.976;73.248;2023-03-16T06:40:38;101117.22;;;-3.01;86.35
63819;BME280;49970;54.976;73.248;2023-03-16T06:44:30;101121.53;;;-2.95;86.55
63819;BME280;49970;54.976;73.248;2023-03-16T06:48:21;101128.41;;;-2.88;86.76
63819;BME280;49970;54.976;73.248;2023-03-16T06:56:01;101132.69;;;-2.81;86.52
63819;BME280;49970;54.976;73.248;2023-03-16T07:00:17;101142.16;;;-2.63;86.61
63819;BME280;49970;54.976;73.248;2023-03-16T07:03:47;101139.50;;;-2.55;86.53
63819;BME280;49970;54.976;73.248;2023-03-16T07:06:19;101145.56;;;-2.53;86.46
63819;BME280;49970;54.976;73.248;2023-03-16T07:08:45;101144.72;;;-2.55;86.41
63819;BME280;49970;54.976;73.248;2023-03-16T07:11:13;101150.75;;;-2.50;86.41
63819;BME280;49970;54.976;73.248;2023-03-16T07:13:40;101151.63;;;-2.46;85.84
63819;BME280;49970;54.976;73.248;2023-03-16T07:16:07;101153.31;;;-2.42;86.00
63819;BME280;49970;54.976;73.248;2023-03-16T07:18:34;101155.03;;;-2.40;85.77
63819;BME280;49970;54.976;73.248;2023-03-16T07:21:03;101160.19;;;-2.35;85.85
63819;BME280;49970;54.976;73.248;2023-03-16T07:23:29;101164.50;;;-2.34;85.58
63819;BME280;49970;54.976;73.248;2023-03-16T07:26:02;101167.13;;;-2.37;85.31
63819;BME280;49970;54.976;73.248;2023-03-16T07:28:30;101160.22;;;-2.34;85.01
63819;BME280;49970;54.976;73.248;2023-03-16T07:30:59;101158.47;;;-2.33;85.00
63819;BME280;49970;54.976;73.248;2023-03-16T07:33:26;101165.38;;;-2.32;84.78
63819;BME280;49970;54.976;73.248;2023-03-16T07:36:00;101165.34;;;-2.28;84.98
63819;BME280;49970;54.976;73.248;2023-03-16T07:38:32;101161.88;;;-2.25;85.08
63819;BME280;49970;54.976;73.248;2023-03-16T07:40:59;101170.50;;;-2.20;85.25
63819;BME280;49970;54.976;73.248;2023-03-16T07:43:27;101173.06;;;-2.15;84.85
63819;BME280;49970;54.976;73.248;2023-03-16T07:45:55;101174.88;;;-2.25;84.14
63819;BME280;49970;54.976;73.248;2023-03-16T07:48:23;101173.13;;;-2.26;84.33
63819;BME280;49970;54.976;73.248;2023-03-16T07:50:54;101183.47;;;-2.17;85.00
63819;BME280;49970;54.976;73.248;2023-03-16T07:53:22;101181.72;;;-2.15;85.15
63819;BME280;49970;54.976;73.248;2023-03-16T07:55:53;101180.00;;;-2.13;84.74
63819;BME280;49970;54.976;73.248;2023-03-16T07:58:19;101193.00;;;-2.22;84.06
63819;BME280;49970;54.976;73.248;2023-03-16T08:00:56;101182.66;;;-2.31;83.79
63819;BME280;49970;54.976;73.248;2023-03-16T08:03:24;101186.13;;;-2.32;84.26
63819;BME280;49970;54.976;73.248;2023-03-16T08:05:52;101187.00;;;-2.29;84.46
63819;BME280;49970;54.976;73.248;2023-03-16T08:08:18;101186.09;;;-2.23;84.60
63819;BME280;49970;54.976;73.248;2023-03-16T08:10:49;101186.97;;;-2.27;84.00
63819;BME280;49970;54.976;73.248;2023-03-16T08:13:19;101189.59;;;-2.29;84.00
63819;BME280;49970;54.976;73.248;2023-03-16T08:15:48;101186.94;;;-2.22;84.07
63819;BME280;49970;54.976;73.248;2023-03-16T08:18:27;101186.06;;;-2.15;84.13
63819;BME280;49970;54.976;73.248;2023-03-16T08:21:05;101196.44;;;-2.12;84.28
63819;BME280;49970;54.976;73.248;2023-03-16T08:23:31;101198.19;;;-2.22;83.74
63819;BME280;49970;54.976;73.248;2023-03-16T08:25:58;101199.06;;;-2.24;84.12
63819;BME280;49970;54.976;73.248;2023-03-16T08:28:27;101201.63;;;-2.15;84.61
63819;BME280;49970;54.976;73.248;2023-03-16T08:30:55;101205.06;;;-2.10;84.70
63819;BME280;49970;54.976;73.248;2023-03-16T08:33:33;101193.81;;;-2.11;84.67
63819;BME280;49970;54.976;73.248;2023-03-16T08:36:05;101206.75;;;-2.00;84.94
63819;BME280;49970;54.976;73.248;2023-03-16T08:38:31;101207.56;;;-1.93;84.90
63819;BME280;49970;54.976;73.248;2023-03-16T08:41:03;101211.88;;;-1.89;85.52
63819;BME280;49970;54.976;73.248;2023-03-16T08:43:30;101224.84;;;-1.86;84.53
63819;BME280;49970;54.976;73.248;2023-03-16T08:45:57;101211.88;;;-1.92;84.34
63819;BME280;49970;54.976;73.248;2023-03-16T08:48:40;101210.22;;;-2.03;83.96
63819;BME280;49970;54.976;73.248;2023-03-16T08:51:08;101221.47;;;-2.05;83.09
63819;BME280;49970;54.976;73.248;2023-03-16T08:53:45;101218.94;;;-2.16;83.00
63819;BME280;49970;54.976;73.248;2023-03-16T08:56:12;101233.59;;;-2.10;83.92
63819;BME280;49970;54.976;73.248;2023-03-16T08:58:40;101231.91;;;-2.17;83.59
63819;BME280;49970;54.976;73.248;2023-03-16T09:01:12;101230.19;;;-2.18;83.85
63819;BME280;49970;54.976;73.248;2023-03-16T09:03:39;101225.03;;;-2.21;83.48
63819;BME280;49970;54.976;73.248;2023-03-16T09:06:16;101231.03;;;-2.15;83.96
63819;BME280;49970;54.976;73.248;2023-03-16T09:08:43;101237.09;;;-2.13;83.61
63819;BME280;49970;54.976;73.248;2023-03-16T09:11:12;101242.22;;;-2.05;83.86
63819;BME280;49970;54.976;73.248;2023-03-16T09:13:41;101235.31;;;-2.03;83.88
63819;BME280;49970;54.976;73.248;2023-03-16T09:16:09;101239.63;;;-1.99;83.83
63819;BME280;49970;54.976;73.248;2023-03-16T09:18:37;101240.50;;;-2.00;83.85
63819;BME280;49970;54.976;73.248;2023-03-16T09:21:05;101243.06;;;-1.97;83.97
63819;BME280;49970;54.976;73.248;2023-03-16T09:23:33;101236.16;;;-2.03;83.73
63819;BME280;49970;54.976;73.248;2023-03-16T09:26:01;101237.94;;;-2.08;83.25
63819;BME280;49970;54.976;73.248;2023-03-16T09:28:28;101241.41;;;-2.15;83.12
63819;BME280;49970;54.976;73.248;2023-03-16T09:30:58;101243.13;;;-2.11;83.63
63819;BME280;49970;54.976;73.248;2023-03-16T09:33:25;101239.66;;;-2.04;83.76
63819;BME280;49970;54.976;73.248;2023-03-16T09:35:53;101235.28;;;-1.97;83.99
63819;BME280;49970;54.976;73.248;2023-03-16T09:38:31;101242.22;;;-2.05;83.54
63819;BME280;49970;54.976;73.248;2023-03-16T09:41:09;101259.56;;;-2.13;83.20
63819;BME280;49970;54.976;73.248;2023-03-16T09:44:08;101248.31;;;-2.11;83.25
63819;BME280;49970;54.976;73.248;2023-03-16T09:46:41;101250.91;;;-2.08;83.36
63819;BME280;49970;54.976;73.248;2023-03-16T09:49:12;101253.47;;;-2.02;83.69
63819;BME280;49970;54.976;73.248;2023-03-16T09:51:49;101258.69;;;-2.03;83.27
63819;BME280;49970;54.976;73.248;2023-03-16T09:54:28;101267.34;;;-2.04;83.25
63819;BME280;49970;54.976;73.248;2023-03-16T09:56:59;101269.91;;;-1.99;83.57
63819;BME280;49970;54.976;73.248;2023-03-16T09:59:26;101262.16;;;-2.04;83.12
63819;BME280;49970;54.976;73.248;2023-03-16T10:12:38;101274.25;;;-2.06;83.37
63819;BME280;49970;54.976;73.248;2023-03-16T10:15:16;101272.56;;;-2.09;83.31
63819;BME280;49970;54.976;73.248;2023-03-16T10:20:33;101275.13;;;-2.06;83.26
63819;BME280;49970;54.976;73.248;2023-03-16T10:23:11;101277.72;;;-2.06;83.37
63819;BME280;49970;54.976;73.248;2023-03-16T10:25:48;101288.09;;;-1.99;83.52
63819;BME280;49970;54.976;73.248;2023-03-16T10:28:23;101283.75;;;-1.99;83.27
63819;BME280;49970;54.976;73.248;2023-03-16T10:30:54;101280.31;;;-2.04;83.04
63819;BME280;49970;54.976;73.248;2023-03-16T10:33:27;101285.50;;;-2.04;82.98
63819;BME280;49970;54.976;73.248;2023-03-16T10:38:38;101291.56;;;-2.01;83.58
63819;BME280;49970;54.976;73.248;2023-03-16T10:43:58;101292.44;;;-2.06;83.24
63819;BME280;49970;54.976;73.248;2023-03-16T10:46:37;101301.09;;;-2.04;82.99
63819;BME280;49970;54.976;73.248;2023-03-16T10:49:04;101291.59;;;-2.11;82.88
63819;BME280;49970;54.976;73.248;2023-03-16T10:51:34;101306.28;;;-2.10;82.69
63819;BME280;49970;54.976;73.248;2023-03-16T10:54:07;101301.13;;;-2.19;82.55
63819;BME280;49970;54.976;73.248;2023-03-16T11:00:49;101315.84;;;-2.26;83.21
63819;BME280;49970;54.976;73.248;2023-03-16T11:08:33;101316.69;;;-2.09;83.90
63819;BME280;49970;54.976;73.248;2023-03-16T11:19:04;101334.84;;;-2.04;83.49
63819;BME280;49970;54.976;73.248;2023-03-16T11:21:52;101337.44;;;-2.04;83.50
63819;BME280;49970;54.976;73.248;2023-03-16T11:24:56;101336.53;;;-2.02;84.09
63819;BME280;49970;54.976;73.248;2023-03-16T11:30:40;101337.41;;;-1.95;84.48
63819;BME280;49970;54.976;73.248;2023-03-16T11:33:14;101356.44;;;-1.91;84.23
63819;BME280;49970;54.976;73.248;2023-03-16T11:44:35;101349.53;;;-2.00;83.88
63819;BME280;49970;54.976;73.248;2023-03-16T11:47:29;101353.00;;;-2.03;84.08
63819;BME280;49970;54.976;73.248;2023-03-16T11:50:00;101359.91;;;-2.03;83.98
63819;BME280;49970;54.976;73.248;2023-03-16T11:58:37;101357.34;;;-2.05;84.28
63819;BME280;49970;54.976;73.248;2023-03-16T12:01:43;101361.63;;;-2.05;84.29
63819;BME280;49970;54.976;73.248;2023-03-16T12:10:35;101362.50;;;-2.09;84.17
63819;BME280;49970;54.976;73.248;2023-03-16T12:13:04;101365.13;;;-2.12;84.26
63819;BME280;49970;54.976;73.248;2023-03-16T12:15:46;101372.03;;;-2.11;84.46
63819;BME280;49970;54.976;73.248;2023-03-16T12:18:22;101375.50;;;-2.09;84.25
63819;BME280;49970;54.976;73.248;2023-03-16T12:23:35;101366.84;;;-2.14;84.25
63819;BME280;49970;54.976;73.248;2023-03-16T12:26:04;101367.75;;;-2.17;84.37
63819;BME280;49970;54.976;73.248;2023-03-16T12:28:35;101365.13;;;-2.15;84.67
63819;BME280;49970;54.976;73.248;2023-03-16T12:31:15;101362.56;;;-2.17;84.65
63819;BME280;49970;54.976;73.248;2023-03-16T12:33:52;101365.13;;;-2.15;84.89
63819;BME280;49970;54.976;73.248;2023-03-16T12:36:47;101367.72;;;-2.15;84.66
63819;BME280;49970;54.976;73.248;2023-03-16T12:44:18;101366.00;;;-2.18;85.05
63819;BME280;49970;54.976;73.248;2023-03-16T12:46:59;101358.22;;;-2.19;85.33
63819;BME280;49970;54.976;73.248;2023-03-16T12:49:32;101353.03;;;-2.19;85.43
63819;BME280;49970;54.976;73.248;2023-03-16T12:52:11;101357.34;;;-2.20;85.33
63819;BME280;49970;54.976;73.248;2023-03-16T12:55:07;101362.53;;;-2.23;85.29
63819;BME280;49970;54.976;73.248;2023-03-16T12:57:39;101362.53;;;-2.26;85.30
63819;BME280;49970;54.976;73.248;2023-03-16T13:00:13;101358.25;;;-2.33;85.16
63819;BME280;49970;54.976;73.248;2023-03-16T13:02:52;101360.00;;;-2.34;85.19
63819;BME280;49970;54.976;73.248;2023-03-16T13:05:50;101366.88;;;-2.31;84.73
63819;BME280;49970;54.976;73.248;2023-03-16T13:08:18;101379.84;;;-2.34;84.93
63819;BME280;49970;54.976;73.248;2023-03-16T13:13:29;101384.22;;;-2.38;84.68
63819;BME280;49970;54.976;73.248;2023-03-16T13:16:08;101367.78;;;-2.51;84.73
63819;BME280;49970;54.976;73.248;2023-03-16T13:18:39;101389.38;;;-2.47;84.70
63819;BME280;49970;54.976;73.248;2023-03-16T13:21:21;101395.44;;;-2.48;84.68
63819;BME280;49970;54.976;73.248;2023-03-16T13:26:49;101399.78;;;-2.50;84.98
63819;BME280;49970;54.976;73.248;2023-03-16T13:29:28;101405.81;;;-2.48;84.82
63819;BME280;49970;54.976;73.248;2023-03-16T13:31:59;101410.13;;;-2.48;84.85
63819;BME280;49970;54.976;73.248;2023-03-16T13:34:32;101413.59;;;-2.51;84.36
63819;BME280;49970;54.976;73.248;2023-03-16T13:37:12;101417.06;;;-2.49;85.05
63819;BME280;49970;54.976;73.248;2023-03-16T13:39:39;101419.66;;;-2.49;85.04
63819;BME280;49970;54.976;73.248;2023-03-16T13:42:18;101409.25;;;-2.55;85.27
63819;BME280;49970;54.976;73.248;2023-03-16T13:44:55;101426.56;;;-2.51;85.64
63819;BME280;49970;54.976;73.248;2023-03-16T13:47:27;101427.44;;;-2.49;85.75
63819;BME280;49970;54.976;73.248;2023-03-16T13:49:56;101426.56;;;-2.48;85.90
63819;BME280;49970;54.976;73.248;2023-03-16T13:54:56;101421.38;;;-2.48;85.69
63819;BME280;49970;54.976;73.248;2023-03-16T13:57:29;101422.25;;;-2.47;85.33
63819;BME280;49970;54.976;73.248;2023-03-16T14:02:41;101433.50;;;-2.53;85.58
63819;BME280;49970;54.976;73.248;2023-03-16T14:05:10;101438.69;;;-2.53;85.57
63819;BME280;49970;54.976;73.248;2023-03-16T14:07:37;101444.72;;;-2.56;85.25
63819;BME280;49970;54.976;73.248;2023-03-16T14:10:05;101448.19;;;-2.57;85.50
63819;BME280;49970;54.976;73.248;2023-03-16T14:12:32;101456.84;;;-2.58;85.44
63819;BME280;49970;54.976;73.248;2023-03-16T14:15:14;101460.28;;;-2.60;85.60
63819;BME280;49970;54.976;73.248;2023-03-16T14:17:50;101461.13;;;-2.60;85.86
63819;BME280;49970;54.976;73.248;2023-03-16T14:20:22;101472.41;;;-2.58;86.12
63819;BME280;49970;54.976;73.248;2023-03-16T14:22:51;101473.25;;;-2.59;86.01
63819;BME280;49970;54.976;73.248;2023-03-16T14:25:21;101474.09;;;-2.60;85.76
63819;BME280;49970;54.976;73.248;2023-03-16T14:27:57;101476.72;;;-2.61;85.42
63819;BME280;49970;54.976;73.248;2023-03-16T14:30:25;101478.44;;;-2.62;85.56
63819;BME280;49970;54.976;73.248;2023-03-16T14:33:00;101483.63;;;-2.62;85.56
63819;BME280;49970;54.976;73.248;2023-03-16T14:35:30;101470.66;;;-2.63;85.68
63819;BME280;49970;54.976;73.248;2023-03-16T14:38:30;101486.22;;;-2.63;85.62
63819;BME280;49970;54.976;73.248;2023-03-16T14:43:32;101464.56;;;-2.73;85.51
63819;BME280;49970;54.976;73.248;2023-03-16T14:46:11;101488.81;;;-2.65;85.61
63819;BME280;49970;54.976;73.248;2023-03-16T14:48:39;101493.13;;;-2.65;86.06
63819;BME280;49970;54.976;73.248;2023-03-16T14:51:12;101472.34;;;-2.78;85.10
63819;BME280;49970;54.976;73.248;2023-03-16T14:53:39;101487.91;;;-2.73;85.46
63819;BME280;49970;54.976;73.248;2023-03-16T14:56:10;101480.13;;;-2.76;85.61
63819;BME280;49970;54.976;73.248;2023-03-16T14:58:39;101487.91;;;-2.78;85.49
63819;BME280;49970;54.976;73.248;2023-03-16T15:01:05;101464.56;;;-2.88;85.60
63819;BME280;49970;54.976;73.248;2023-03-16T15:03:34;101479.25;;;-2.86;85.49
63819;BME280;49970;54.976;73.248;2023-03-16T15:06:01;101484.44;;;-2.81;85.63
63819;BME280;49970;54.976;73.248;2023-03-16T15:08:30;101487.88;;;-2.85;85.47
63819;BME280;49970;54.976;73.248;2023-03-16T15:11:03;101493.09;;;-2.88;85.38
63819;BME280;49970;54.976;73.248;2023-03-16T15:13:30;101474.03;;;-2.98;85.50
63819;BME280;49970;54.976;73.248;2023-03-16T15:16:11;101498.25;;;-2.90;85.49
63819;BME280;49970;54.976;73.248;2023-03-16T15:18:39;101486.13;;;-2.95;85.34
63819;BME280;49970;54.976;73.248;2023-03-16T15:21:17;101487.88;;;-2.96;85.75